createdAt,value
2022-09-05T00:00:12.867Z,58.50
2022-09-05T00:02:55.877Z,59.00
2022-09-05T00:05:32.079Z,61.50
2022-09-05T00:08:04.883Z,70.90
2022-09-05T00:11:41.933Z,99.90
2022-09-05T00:13:45.059Z,99.90
2022-09-05T00:16:11.933Z,99.90
2022-09-05T00:24:17.584Z,99.90
2022-09-05T00:24:31.661Z,99.90
2022-09-05T00:25:33.011Z,99.90
2022-09-05T00:28:26.170Z,99.90
2022-09-05T00:31:56.201Z,99.90
2022-09-05T00:34:20.862Z,99.90
2022-09-05T00:36:54.771Z,99.90
2022-09-05T00:39:27.037Z,99.90
2022-09-05T00:41:58.590Z,99.90
2022-09-05T00:44:30.508Z,99.90
2022-09-05T00:47:23.304Z,99.90
2022-09-05T00:49:55.485Z,99.90
2022-09-05T00:52:36.914Z,99.90
2022-09-05T00:55:35.631Z,99.90
2022-09-05T00:58:35.951Z,99.90
2022-09-05T01:01:21.306Z,99.90
2022-09-05T01:03:56.653Z,99.90
2022-09-05T01:06:55.679Z,99.90
2022-09-05T01:09:47.043Z,99.90
2022-09-05T01:12:53.073Z,99.90
2022-09-05T01:15:32.317Z,99.90
2022-09-05T01:18:26.384Z,99.90
2022-09-05T01:21:23.143Z,99.90
2022-09-05T01:24:27.645Z,99.90
2022-09-05T01:27:13.711Z,99.90
2022-09-05T01:29:40.551Z,99.90
2022-09-05T01:32:19.344Z,99.90
2022-09-05T01:35:23.621Z,99.90
2022-09-05T01:38:06.383Z,99.90
2022-09-05T01:40:59.012Z,99.90
2022-09-05T01:44:14.551Z,99.90
2022-09-05T01:47:04.093Z,99.90
2022-09-05T01:50:01.110Z,99.90
2022-09-05T01:52:47.713Z,99.90
2022-09-05T01:56:04.701Z,99.90
2022-09-05T01:59:13.337Z,99.90
2022-09-05T02:02:18.758Z,1.00
2022-09-05T02:04:52.658Z,1.00
2022-09-05T02:08:08.965Z,1.00
2022-09-05T02:10:54.372Z,1.00
2022-09-05T02:13:36.155Z,1.00
2022-09-05T02:16:18.199Z,1.00
2022-09-05T02:19:08.785Z,1.00
2022-09-05T02:21:55.809Z,1.00
2022-09-05T02:24:33.783Z,1.00
2022-09-05T02:28:04.246Z,1.00
2022-09-05T02:30:47.421Z,1.00
2022-09-05T02:33:40.790Z,1.00
2022-09-05T02:36:34.985Z,1.00
2022-09-05T02:44:32.481Z,1.00
2022-09-05T02:45:05.999Z,1.00
2022-09-05T02:45:32.555Z,1.00
2022-09-05T02:48:20.507Z,1.00
2022-09-05T02:57:27.164Z,1.00
2022-09-05T02:57:34.200Z,1.00
2022-09-05T02:58:06.649Z,1.00
2022-09-05T03:00:35.494Z,1.00
2022-09-05T03:03:05.404Z,1.00
2022-09-05T03:06:01.296Z,1.00
2022-09-05T03:08:31.206Z,1.00
2022-09-05T03:11:20.467Z,1.00
2022-09-05T03:14:08.517Z,1.00
2022-09-05T03:16:59.291Z,1.00
2022-09-05T03:19:54.456Z,1.00
2022-09-05T03:22:47.534Z,1.00
2022-09-05T03:25:55.814Z,1.00
2022-09-05T03:28:41.070Z,1.00
2022-09-05T03:31:39.287Z,1.00
2022-09-05T03:34:14.734Z,1.00
2022-09-05T03:37:00.523Z,24.10
2022-09-05T03:39:30.287Z,48.30
2022-09-05T03:42:17.397Z,99.90
2022-09-05T03:44:48.745Z,99.90
2022-09-05T03:47:30.853Z,99.90
2022-09-05T03:56:25.199Z,1.00
2022-09-05T03:57:12.688Z,1.00
2022-09-05T03:57:22.993Z,99.90
2022-09-05T03:59:34.687Z,99.90
2022-09-05T04:05:16.614Z,99.90
2022-09-05T04:08:19.485Z,99.90
2022-09-05T04:08:32.081Z,1.00
2022-09-05T04:11:26.984Z,1.00
2022-09-05T04:14:22.908Z,1.00
2022-09-05T04:16:52.404Z,75.20
2022-09-05T04:19:37.235Z,99.90
2022-09-05T04:22:07.047Z,99.90
2022-09-05T04:24:51.612Z,99.90
2022-09-05T04:27:32.031Z,99.90
2022-09-05T04:30:38.582Z,99.90
2022-09-05T04:33:19.882Z,99.90
2022-09-05T04:36:26.219Z,1.00
2022-09-05T04:39:17.831Z,1.00
2022-09-05T04:42:24.583Z,1.00
2022-09-05T04:45:01.832Z,1.00
2022-09-05T04:47:39.341Z,1.00
2022-09-05T04:50:20.323Z,19.40
2022-09-05T04:53:05.887Z,99.90
2022-09-05T04:55:50.505Z,99.90
2022-09-05T04:58:55.545Z,99.90
2022-09-05T05:06:02.738Z,99.90
2022-09-05T05:06:13.494Z,99.90
2022-09-05T05:07:59.937Z,99.90
2022-09-05T05:14:10.815Z,1.00
2022-09-05T05:18:09.410Z,1.00
2022-09-05T05:18:13.109Z,1.00
2022-09-05T05:20:40.110Z,1.00
2022-09-05T05:22:48.699Z,1.00
2022-09-05T05:25:17.930Z,1.00
2022-09-05T05:28:00.120Z,1.00
2022-09-05T05:30:31.122Z,1.00
2022-09-05T05:33:00.456Z,1.00
2022-09-05T05:35:33.319Z,1.00
2022-09-05T05:38:17.558Z,1.00
2022-09-05T05:40:51.519Z,1.00
2022-09-05T05:43:27.287Z,1.00
2022-09-05T05:46:01.747Z,1.00
2022-09-05T05:48:45.605Z,1.00
2022-09-05T05:51:34.608Z,22.00
2022-09-05T05:54:28.478Z,99.90
2022-09-05T05:57:19.824Z,99.90
2022-09-05T06:00:02.683Z,99.90
2022-09-05T06:03:26.726Z,1.00
2022-09-05T06:05:57.217Z,1.00
2022-09-05T06:12:45.039Z,1.00
2022-09-05T06:14:58.565Z,99.90
2022-09-05T06:15:22.080Z,1.00
2022-09-05T06:18:07.704Z,99.90
2022-09-05T06:22:06.198Z,99.90
2022-09-05T06:24:48.158Z,99.90
2022-09-05T06:28:02.296Z,99.90
2022-09-05T06:31:21.131Z,99.90
2022-09-05T06:33:55.734Z,91.20
2022-09-05T06:36:32.247Z,66.50
2022-09-05T06:39:14.127Z,34.80
2022-09-05T06:41:49.819Z,26.70
2022-09-05T06:44:28.355Z,26.60
2022-09-05T06:47:23.196Z,24.30
2022-09-05T06:50:26.800Z,23.60
2022-09-05T06:52:52.063Z,18.30
2022-09-05T06:55:38.482Z,15.80
2022-09-05T06:58:41.356Z,12.80
2022-09-05T07:01:09.739Z,11.20
2022-09-05T07:05:14.636Z,12.10
2022-09-05T07:07:27.668Z,8.60
2022-09-05T07:10:37.399Z,7.90
2022-09-05T07:13:05.257Z,6.20
2022-09-05T07:16:06.384Z,6.10
2022-09-05T07:18:52.935Z,3.50
2022-09-05T07:21:30.986Z,1.50
2022-09-05T07:24:10.186Z,1.30
2022-09-05T07:26:53.578Z,1.00
2022-09-05T07:30:00.971Z,1.00
2022-09-05T07:32:31.504Z,1.00
2022-09-05T07:35:03.210Z,1.00
2022-09-05T07:37:41.850Z,1.00
2022-09-05T07:40:24.995Z,1.00
2022-09-05T07:43:08.982Z,1.00
2022-09-05T07:45:52.162Z,1.00
2022-09-05T07:48:35.157Z,1.00
2022-09-05T07:56:46.834Z,1.00
2022-09-05T07:57:10.464Z,1.00
2022-09-05T07:59:41.659Z,1.00
2022-09-05T08:02:11.892Z,1.00
2022-09-05T08:04:41.852Z,1.00
2022-09-05T08:07:48.802Z,1.00
2022-09-05T08:10:15.653Z,1.00
2022-09-05T08:13:23.592Z,1.00
2022-09-05T08:16:10.552Z,1.00
2022-09-05T08:18:47.751Z,1.00
2022-09-05T08:21:42.799Z,1.00
2022-09-05T08:24:23.863Z,1.00
2022-09-05T08:27:03.143Z,1.00
2022-09-05T08:29:58.926Z,1.00
2022-09-05T08:32:48.867Z,1.00
2022-09-05T08:35:36.147Z,1.00
2022-09-05T08:38:04.461Z,1.00
2022-09-05T08:41:18.135Z,1.00
2022-09-05T08:46:35.547Z,1.00
2022-09-05T08:46:59.166Z,1.00
2022-09-05T08:50:09.219Z,1.00
2022-09-05T08:53:03.272Z,1.00
2022-09-05T08:56:02.716Z,1.00
2022-09-05T08:58:35.884Z,1.00
2022-09-05T09:01:11.913Z,1.00
2022-09-05T09:04:04.563Z,1.00
2022-09-05T09:07:47.250Z,1.00
2022-09-05T09:10:03.022Z,1.00
2022-09-05T09:13:00.165Z,1.00
2022-09-05T09:15:35.332Z,1.00
2022-09-05T09:18:10.445Z,1.00
2022-09-05T09:20:51.975Z,1.00
2022-09-05T09:23:52.008Z,1.00
2022-09-05T09:26:42.333Z,1.00
2022-09-05T09:29:12.508Z,1.00
2022-09-05T09:31:45.130Z,1.00
2022-09-05T09:34:26.851Z,1.00
2022-09-05T09:37:34.206Z,1.00
2022-09-05T09:40:35.107Z,1.00
2022-09-05T09:43:27.420Z,1.00
2022-09-05T09:46:10.291Z,1.00
2022-09-05T09:48:55.931Z,1.00
2022-09-05T09:51:44.162Z,1.00
2022-09-05T09:54:16.335Z,1.00
2022-09-05T09:57:01.819Z,1.00
2022-09-05T09:59:29.436Z,1.00
2022-09-05T10:06:45.300Z,1.00
2022-09-05T10:10:47.492Z,1.00
2022-09-05T10:10:51.890Z,1.00
2022-09-05T10:11:58.603Z,1.00
2022-09-05T10:15:19.719Z,1.00
2022-09-05T10:18:15.922Z,1.00
2022-09-05T10:21:16.123Z,1.00
2022-09-05T10:24:00.793Z,1.00
2022-09-05T10:26:51.090Z,1.00
2022-09-05T10:29:55.754Z,1.00
2022-09-05T10:35:15.024Z,1.00
2022-09-05T10:35:50.807Z,1.00
2022-09-05T10:39:01.192Z,1.00
2022-09-05T10:42:03.110Z,1.00
2022-09-05T10:44:40.609Z,1.00
2022-09-05T10:47:07.617Z,1.00
2022-09-05T10:49:40.626Z,1.00
2022-09-05T10:52:19.393Z,1.00
2022-09-05T10:55:14.613Z,1.00
2022-09-05T10:57:51.946Z,1.00
2022-09-05T11:02:24.776Z,1.00
2022-09-05T11:04:04.438Z,1.00
2022-09-05T11:06:56.772Z,1.00
2022-09-05T11:09:38.823Z,1.00
2022-09-05T11:12:12.113Z,1.00
2022-09-05T11:14:52.470Z,1.00
2022-09-05T11:17:42.027Z,1.00
2022-09-05T11:20:34.937Z,1.00
2022-09-05T11:23:15.244Z,1.00
2022-09-05T11:25:44.527Z,1.00
2022-09-05T11:28:18.635Z,1.00
2022-09-05T11:30:53.409Z,1.00
2022-09-05T11:39:48.467Z,1.00
2022-09-05T11:40:00.001Z,1.00
2022-09-05T11:40:28.384Z,13.20
2022-09-05T11:43:39.249Z,1.00
2022-09-05T11:46:45.907Z,1.00
2022-09-05T11:49:26.122Z,1.00
2022-09-05T11:51:58.313Z,1.00
2022-09-05T11:55:20.837Z,1.00
2022-09-05T11:58:43.590Z,1.00
2022-09-05T12:01:36.816Z,1.00
2022-09-05T12:04:26.123Z,1.00
2022-09-05T12:07:29.917Z,1.00
2022-09-05T12:10:48.539Z,1.00
2022-09-05T12:13:42.617Z,1.00
2022-09-05T12:16:36.223Z,1.00
2022-09-05T12:19:22.861Z,1.00
2022-09-05T12:21:49.727Z,1.00
2022-09-05T12:25:17.083Z,1.00
2022-09-05T12:28:28.667Z,1.00
2022-09-05T12:30:57.091Z,1.00
2022-09-05T12:36:03.744Z,1.00
2022-09-05T12:40:44.829Z,1.00
2022-09-05T12:40:53.325Z,1.00
2022-09-05T12:43:52.630Z,1.00
2022-09-05T12:45:58.154Z,1.00
2022-09-05T12:49:07.662Z,1.00
2022-09-05T12:51:46.417Z,1.00
2022-09-05T12:54:32.932Z,1.00
2022-09-05T13:01:00.182Z,1.00
2022-09-05T13:02:58.564Z,1.00
2022-09-05T13:03:27.628Z,1.00
2022-09-05T13:05:51.590Z,1.00
2022-09-05T13:08:23.699Z,1.00
2022-09-05T13:14:47.711Z,1.00
2022-09-05T13:14:55.051Z,1.00
2022-09-05T13:17:01.303Z,1.00
2022-09-05T13:19:47.485Z,1.00
2022-09-05T13:22:17.448Z,1.00
2022-09-05T13:24:50.591Z,1.00
2022-09-05T13:27:31.897Z,1.00
2022-09-05T13:31:19.819Z,1.00
2022-09-05T13:38:06.155Z,1.00
2022-09-05T13:38:21.302Z,1.00
2022-09-05T13:39:06.030Z,1.00
2022-09-05T13:41:43.391Z,1.00
2022-09-05T13:44:25.566Z,1.00
2022-09-05T13:47:28.414Z,1.00
2022-09-05T13:50:07.717Z,1.00
2022-09-05T13:52:41.669Z,1.00
2022-09-05T13:55:14.376Z,1.00
2022-09-05T13:58:24.224Z,1.00
2022-09-05T14:00:54.128Z,1.00
2022-09-05T14:03:47.429Z,1.00
2022-09-05T14:06:47.238Z,1.00
2022-09-05T14:09:38.678Z,1.00
2022-09-05T14:12:11.856Z,1.00
2022-09-05T14:15:09.349Z,1.00
2022-09-05T14:17:52.706Z,1.00
2022-09-05T14:20:42.788Z,1.00
2022-09-05T14:23:15.941Z,1.00
2022-09-05T14:25:49.944Z,1.00
2022-09-05T14:28:26.403Z,1.00
2022-09-05T14:36:13.665Z,1.00
2022-09-05T14:37:53.013Z,1.00
2022-09-05T14:37:53.549Z,1.00
2022-09-05T14:40:30.456Z,1.00
2022-09-05T14:43:24.398Z,1.00
2022-09-05T14:46:21.753Z,1.00
2022-09-05T14:48:56.715Z,1.00
2022-09-05T14:51:46.555Z,1.00
2022-09-05T15:01:50.043Z,1.00
2022-09-05T15:02:44.027Z,1.00
2022-09-05T15:03:05.124Z,1.00
2022-09-05T15:05:43.168Z,1.00
2022-09-05T15:09:27.288Z,1.00
2022-09-05T15:12:19.929Z,1.00
2022-09-05T15:14:11.594Z,1.00
2022-09-05T15:16:43.730Z,1.00
2022-09-05T15:19:11.495Z,1.00
2022-09-05T15:21:41.329Z,1.00
2022-09-05T15:24:29.547Z,1.00
2022-09-05T15:26:59.469Z,1.00
2022-09-05T15:29:29.244Z,1.00
2022-09-05T15:32:17.404Z,1.00
2022-09-05T15:34:44.345Z,1.00
2022-09-05T15:37:36.758Z,1.00
2022-09-05T15:40:22.436Z,1.00
2022-09-05T15:42:57.603Z,1.00
2022-09-05T15:45:35.595Z,1.00
2022-09-05T15:48:14.806Z,1.00
2022-09-05T15:50:51.283Z,1.00
2022-09-05T15:53:37.557Z,1.00
2022-09-05T15:56:10.601Z,1.00
2022-09-05T15:58:55.485Z,1.00
2022-09-05T16:01:58.153Z,1.00
2022-09-05T16:09:45.158Z,1.00
2022-09-05T16:10:41.775Z,1.00
2022-09-05T16:10:46.154Z,1.00
2022-09-05T16:13:02.488Z,1.00
2022-09-05T16:22:26.650Z,1.00
2022-09-05T16:23:27.194Z,1.00
2022-09-05T16:23:29.702Z,1.00
2022-09-05T16:24:58.483Z,1.00
2022-09-05T16:27:37.116Z,1.00
2022-09-05T16:30:15.495Z,1.00
2022-09-05T16:32:50.981Z,1.00
2022-09-05T16:35:26.534Z,1.00
2022-09-05T16:38:00.871Z,1.00
2022-09-05T16:40:51.635Z,1.00
2022-09-05T16:43:33.331Z,1.00
2022-09-05T16:46:15.950Z,1.00
2022-09-05T16:48:55.345Z,1.00
2022-09-05T16:51:36.277Z,1.00
2022-09-05T16:54:10.954Z,1.00
2022-09-05T16:56:49.731Z,1.00
2022-09-05T16:59:21.798Z,1.00
2022-09-05T17:02:06.284Z,1.00
2022-09-05T17:05:11.967Z,1.00
2022-09-05T17:08:00.009Z,1.00
2022-09-05T17:10:33.875Z,1.00
2022-09-05T17:13:02.413Z,1.00
2022-09-05T17:15:35.492Z,1.00
2022-09-05T17:18:21.631Z,1.00
2022-09-05T17:20:56.887Z,1.00
2022-09-05T17:29:15.318Z,1.00
2022-09-05T17:29:27.606Z,1.00
2022-09-05T17:32:51.624Z,1.00
2022-09-05T17:35:52.879Z,1.00
2022-09-05T17:38:48.912Z,1.00
2022-09-05T17:41:21.885Z,1.00
2022-09-05T17:43:58.288Z,1.00
2022-09-05T17:46:29.820Z,1.00
2022-09-05T17:49:18.975Z,1.00
2022-09-05T17:51:52.466Z,1.00
2022-09-05T17:54:30.181Z,1.00
2022-09-05T17:57:28.820Z,1.00
2022-09-05T18:00:03.838Z,1.00
2022-09-05T18:02:54.742Z,1.00
2022-09-05T18:06:01.106Z,1.00
2022-09-05T18:08:46.243Z,1.00
2022-09-05T18:11:22.161Z,1.00
2022-09-05T18:14:01.235Z,1.00
2022-09-05T18:19:46.618Z,1.00
2022-09-05T18:22:32.854Z,1.00
2022-09-05T18:25:14.057Z,1.00
2022-09-05T18:30:43.039Z,1.00
2022-09-05T18:33:55.444Z,1.00
2022-09-05T18:36:32.217Z,1.00
2022-09-05T18:39:24.807Z,1.40
2022-09-05T18:42:25.801Z,1.00
2022-09-05T18:45:02.535Z,1.00
2022-09-05T18:47:52.795Z,1.00
2022-09-05T18:50:32.328Z,1.00
2022-09-05T18:53:10.103Z,1.00
2022-09-05T18:56:20.380Z,1.00
2022-09-05T18:59:12.195Z,1.00
2022-09-05T19:02:01.527Z,1.00
2022-09-05T19:04:40.922Z,1.00
2022-09-05T19:07:31.954Z,1.00
2022-09-05T19:10:34.397Z,1.00
2022-09-05T19:12:58.855Z,1.00
2022-09-05T19:15:31.081Z,1.00
2022-09-05T19:18:26.052Z,1.00
2022-09-05T19:21:19.096Z,1.00
2022-09-05T19:24:00.412Z,1.00
2022-09-05T19:26:31.085Z,2.40
2022-09-05T19:36:45.180Z,3.70
2022-09-05T19:37:12.359Z,4.70
2022-09-05T19:37:15.105Z,6.00
2022-09-05T19:37:46.607Z,7.10
2022-09-05T19:47:25.257Z,7.20
2022-09-05T19:47:36.179Z,9.20
2022-09-05T19:47:41.505Z,8.40
2022-09-05T19:49:08.538Z,10.20
2022-09-05T19:51:36.699Z,10.40
2022-09-05T19:54:06.021Z,10.50
2022-09-05T19:56:44.539Z,10.90
2022-09-05T19:59:22.999Z,10.60
2022-09-05T20:01:51.870Z,11.90
2022-09-05T20:04:20.194Z,11.20
2022-09-05T20:06:49.058Z,11.40
2022-09-05T20:09:22.226Z,11.40
2022-09-05T20:11:58.156Z,10.80
2022-09-05T20:14:31.147Z,11.40
2022-09-05T20:17:28.494Z,11.00
2022-09-05T20:20:16.106Z,11.60
2022-09-05T20:22:50.355Z,12.40
2022-09-05T20:25:41.396Z,13.50
2022-09-05T20:28:20.691Z,13.20
2022-09-05T20:30:54.219Z,13.00
2022-09-05T20:33:48.102Z,13.90
2022-09-05T20:43:10.035Z,15.80
2022-09-05T20:43:22.130Z,17.00
2022-09-05T20:43:24.421Z,17.90
2022-09-05T20:45:03.576Z,21.20
2022-09-05T20:50:48.395Z,23.60
2022-09-05T20:54:16.031Z,26.20
2022-09-05T20:54:19.416Z,29.20
2022-09-05T20:56:23.629Z,28.40
2022-09-05T20:58:51.531Z,28.90
2022-09-05T21:01:23.649Z,30.00
2022-09-05T21:04:05.355Z,30.50
2022-09-05T21:06:34.889Z,30.50
2022-09-05T21:09:14.419Z,31.20
2022-09-05T21:11:43.109Z,30.00
2022-09-05T21:14:11.271Z,29.70
2022-09-05T21:16:45.156Z,29.40
2022-09-05T21:19:29.727Z,29.50
2022-09-05T21:22:15.620Z,30.60
2022-09-05T21:24:43.554Z,31.30
2022-09-05T21:27:24.706Z,30.80
2022-09-05T21:29:58.825Z,30.80
2022-09-05T21:32:27.938Z,32.40
2022-09-05T21:35:15.333Z,34.20
2022-09-05T21:37:53.668Z,35.80
2022-09-05T21:40:21.417Z,37.30
2022-09-05T21:45:27.398Z,38.50
2022-09-05T21:47:38.173Z,40.10
2022-09-05T21:48:24.378Z,43.90
2022-09-05T21:50:58.609Z,44.60
2022-09-05T21:59:17.683Z,47.20
2022-09-05T21:59:32.963Z,46.10
2022-09-05T21:59:35.440Z,45.50
2022-09-05T22:02:08.405Z,45.10
2022-09-05T22:04:41.196Z,40.70
2022-09-05T22:07:15.739Z,41.10
2022-09-05T22:09:42.665Z,37.80
2022-09-05T22:12:30.024Z,36.50
2022-09-05T22:15:10.147Z,34.20
2022-09-05T22:17:50.633Z,32.20
2022-09-05T22:20:21.084Z,48.70
2022-09-05T22:22:56.361Z,30.00
2022-09-05T22:25:28.726Z,30.00
2022-09-05T22:28:06.492Z,30.80
2022-09-05T22:30:36.696Z,30.40
2022-09-05T22:33:06.328Z,32.30
2022-09-05T22:35:35.967Z,33.00
2022-09-05T22:38:11.895Z,37.40
2022-09-05T22:40:42.007Z,37.60
2022-09-05T22:43:10.652Z,38.30
2022-09-05T22:45:39.234Z,39.10
2022-09-05T22:48:09.198Z,38.30
2022-09-05T22:50:37.244Z,38.30
2022-09-05T22:53:07.031Z,38.90
2022-09-05T22:55:42.554Z,38.70
2022-09-05T22:58:12.375Z,39.30
2022-09-05T23:00:39.349Z,40.50
2022-09-05T23:03:07.224Z,39.60
2022-09-05T23:05:34.442Z,40.20
2022-09-05T23:08:03.003Z,43.50
2022-09-05T23:10:30.791Z,40.40
2022-09-05T23:12:58.416Z,40.50
2022-09-05T23:15:26.377Z,42.10
2022-09-05T23:17:55.184Z,42.40
2022-09-05T23:20:23.120Z,42.50
2022-09-05T23:22:50.043Z,42.80
2022-09-05T23:25:18.034Z,44.00
2022-09-05T23:27:45.619Z,45.30
2022-09-05T23:30:13.095Z,46.40
2022-09-05T23:32:51.608Z,47.00
2022-09-05T23:35:19.334Z,47.90
2022-09-05T23:37:47.272Z,49.10
2022-09-05T23:40:20.111Z,49.80
2022-09-05T23:42:55.737Z,51.50
2022-09-05T23:45:24.643Z,52.50
2022-09-05T23:47:51.873Z,54.90
2022-09-05T23:50:19.573Z,55.00
2022-09-05T23:52:47.321Z,55.40
2022-09-05T23:55:16.552Z,99.90
2022-09-05T23:57:44.049Z,99.90
